Terminal Aerodrome Forecast
Issued by NWS Spokane, WA

Home | Current Version | Previous Version | Text Only | Print | Product List | Glossary On
Versions: 1 2 3 4 5 6 7 8 9 10 11 12 13 14 15 16 17 18 19 20 21 22 23 24 25 26 27 28
000
FTUS46 KOTX 291756 CCA
TAFEAT
TAF COR
KEAT 291756Z 2918/3018 31010G20KT P6SM BKN100 OVC150
     FM292100 28023G31KT P6SM SCT250
     FM300000 26011G19KT P6SM SCT150
     FM300200 30010KT P6SM SCT080 BKN120
     FM301100 32007KT 6SM -SHRA OVC060
     FM301400 31011KT P6SM BKN060=

USA.gov is the U.S. government's official web portal to all federal, state and local government web resources and services.